sensor_id;sensor_type;location;lat;lon;timestamp;P1;durP1;ratioP1;P2;durP2;ratioP2
48516;SDS011;34310;51.904;4.256;2022-09-09T00:00:44;1.67;;;0.93;;
48516;SDS011;34310;51.904;4.256;2022-09-09T00:03:19;2.13;;;1.20;;
48516;SDS011;34310;51.904;4.256;2022-09-09T00:06:04;4.05;;;1.08;;
48516;SDS011;34310;51.904;4.256;2022-09-09T00:09:07;3.25;;;1.23;;
48516;SDS011;34310;51.904;4.256;2022-09-09T00:11:51;1.90;;;1.05;;
48516;SDS011;34310;51.904;4.256;2022-09-09T00:17:22;2.47;;;1.02;;
48516;SDS011;34310;51.904;4.256;2022-09-09T00:20:14;3.08;;;1.02;;
48516;SDS011;34310;51.904;4.256;2022-09-09T00:23:46;1.35;;;0.95;;
48516;SDS011;34310;51.904;4.256;2022-09-09T00:26:20;1.83;;;1.17;;
48516;SDS011;34310;51.904;4.256;2022-09-09T00:31:57;2.30;;;1.00;;
48516;SDS011;34310;51.904;4.256;2022-09-09T00:34:35;1.85;;;0.90;;
48516;SDS011;34310;51.904;4.256;2022-09-09T00:37:07;2.33;;;1.00;;
48516;SDS011;34310;51.904;4.256;2022-09-09T00:39:40;3.55;;;1.10;;
48516;SDS011;34310;51.904;4.256;2022-09-09T00:42:15;2.80;;;1.10;;
48516;SDS011;34310;51.904;4.256;2022-09-09T00:44:58;2.08;;;1.05;;
48516;SDS011;34310;51.904;4.256;2022-09-09T00:47:46;2.22;;;1.00;;
48516;SDS011;34310;51.904;4.256;2022-09-09T00:58:49;2.38;;;1.00;;
48516;SDS011;34310;51.904;4.256;2022-09-09T01:01:33;2.53;;;0.90;;
48516;SDS011;34310;51.904;4.256;2022-09-09T01:04:01;1.73;;;0.77;;
48516;SDS011;34310;51.904;4.256;2022-09-09T01:06:37;1.98;;;1.05;;
48516;SDS011;34310;51.904;4.256;2022-09-09T01:17:08;4.03;;;0.88;;
48516;SDS011;34310;51.904;4.256;2022-09-09T01:28:22;2.40;;;1.10;;
48516;SDS011;34310;51.904;4.256;2022-09-09T01:30:53;1.88;;;0.80;;
48516;SDS011;34310;51.904;4.256;2022-09-09T01:33:22;1.35;;;0.80;;
48516;SDS011;34310;51.904;4.256;2022-09-09T01:35:52;1.73;;;0.93;;
48516;SDS011;34310;51.904;4.256;2022-09-09T01:38:27;1.95;;;0.90;;
48516;SDS011;34310;51.904;4.256;2022-09-09T01:40:55;1.52;;;0.70;;
48516;SDS011;34310;51.904;4.256;2022-09-09T01:43:24;1.75;;;0.82;;
48516;SDS011;34310;51.904;4.256;2022-09-09T01:45:54;1.95;;;0.80;;
48516;SDS011;34310;51.904;4.256;2022-09-09T01:48:24;1.33;;;0.60;;
48516;SDS011;34310;51.904;4.256;2022-09-09T01:50:52;1.38;;;0.70;;
48516;SDS011;34310;51.904;4.256;2022-09-09T01:53:20;1.15;;;0.52;;
48516;SDS011;34310;51.904;4.256;2022-09-09T02:04:14;2.42;;;0.70;;
48516;SDS011;34310;51.904;4.256;2022-09-09T02:09:23;2.03;;;0.90;;
48516;SDS011;34310;51.904;4.256;2022-09-09T02:11:55;1.85;;;0.70;;
48516;SDS011;34310;51.904;4.256;2022-09-09T02:14:37;1.70;;;0.60;;
48516;SDS011;34310;51.904;4.256;2022-09-09T02:17:09;1.50;;;0.75;;
48516;SDS011;34310;51.904;4.256;2022-09-09T02:19:42;0.70;;;0.60;;
48516;SDS011;34310;51.904;4.256;2022-09-09T02:22:18;0.93;;;0.60;;
48516;SDS011;34310;51.904;4.256;2022-09-09T02:24:48;1.40;;;0.70;;
48516;SDS011;34310;51.904;4.256;2022-09-09T02:27:19;1.65;;;0.70;;
48516;SDS011;34310;51.904;4.256;2022-09-09T02:29:48;0.77;;;0.63;;
48516;SDS011;34310;51.904;4.256;2022-09-09T02:32:18;1.55;;;0.80;;
48516;SDS011;34310;51.904;4.256;2022-09-09T02:34:57;2.05;;;0.50;;
48516;SDS011;34310;51.904;4.256;2022-09-09T02:37:46;0.77;;;0.50;;
48516;SDS011;34310;51.904;4.256;2022-09-09T02:40:16;1.33;;;0.63;;
48516;SDS011;34310;51.904;4.256;2022-09-09T02:42:45;2.28;;;0.60;;
48516;SDS011;34310;51.904;4.256;2022-09-09T02:45:14;2.40;;;0.77;;
48516;SDS011;34310;51.904;4.256;2022-09-09T02:50:53;1.20;;;0.60;;
48516;SDS011;34310;51.904;4.256;2022-09-09T02:53:48;1.23;;;0.60;;
48516;SDS011;34310;51.904;4.256;2022-09-09T02:56:25;2.45;;;0.60;;
48516;SDS011;34310;51.904;4.256;2022-09-09T02:58:57;2.58;;;0.80;;
48516;SDS011;34310;51.904;4.256;2022-09-09T03:01:25;1.00;;;0.50;;
48516;SDS011;34310;51.904;4.256;2022-09-09T03:03:52;2.65;;;0.60;;
48516;SDS011;34310;51.904;4.256;2022-09-09T03:06:21;1.45;;;0.68;;
48516;SDS011;34310;51.904;4.256;2022-09-09T03:08:48;1.05;;;0.70;;
48516;SDS011;34310;51.904;4.256;2022-09-09T03:11:16;1.65;;;0.70;;
48516;SDS011;34310;51.904;4.256;2022-09-09T03:13:43;1.48;;;0.60;;
48516;SDS011;34310;51.904;4.256;2022-09-09T03:16:11;2.92;;;0.82;;
48516;SDS011;34310;51.904;4.256;2022-09-09T03:18:38;1.35;;;0.60;;
48516;SDS011;34310;51.904;4.256;2022-09-09T03:21:05;1.52;;;0.70;;
48516;SDS011;34310;51.904;4.256;2022-09-09T03:23:33;1.60;;;0.70;;
48516;SDS011;34310;51.904;4.256;2022-09-09T03:26:00;1.05;;;0.65;;
48516;SDS011;34310;51.904;4.256;2022-09-09T03:28:27;1.48;;;0.55;;
48516;SDS011;34310;51.904;4.256;2022-09-09T03:30:58;3.08;;;0.63;;
48516;SDS011;34310;51.904;4.256;2022-09-09T03:33:26;3.92;;;0.55;;
48516;SDS011;34310;51.904;4.256;2022-09-09T03:35:55;0.93;;;0.50;;
48516;SDS011;34310;51.904;4.256;2022-09-09T03:38:23;1.08;;;0.68;;
48516;SDS011;34310;51.904;4.256;2022-09-09T03:40:52;1.90;;;0.60;;
48516;SDS011;34310;51.904;4.256;2022-09-09T03:43:24;0.70;;;0.60;;
48516;SDS011;34310;51.904;4.256;2022-09-09T03:45:52;6.35;;;0.80;;
48516;SDS011;34310;51.904;4.256;2022-09-09T03:48:23;1.30;;;0.60;;
48516;SDS011;34310;51.904;4.256;2022-09-09T03:50:54;1.00;;;0.50;;
48516;SDS011;34310;51.904;4.256;2022-09-09T03:53:27;1.42;;;0.68;;
48516;SDS011;34310;51.904;4.256;2022-09-09T03:55:55;1.00;;;0.45;;
48516;SDS011;34310;51.904;4.256;2022-09-09T03:58:26;1.38;;;0.70;;
48516;SDS011;34310;51.904;4.256;2022-09-09T04:00:54;2.03;;;0.60;;
48516;SDS011;34310;51.904;4.256;2022-09-09T04:03:29;2.40;;;0.60;;
48516;SDS011;34310;51.904;4.256;2022-09-09T04:05:58;2.67;;;0.63;;
48516;SDS011;34310;51.904;4.256;2022-09-09T04:08:26;2.55;;;0.65;;
48516;SDS011;34310;51.904;4.256;2022-09-09T04:10:54;1.60;;;0.82;;
48516;SDS011;34310;51.904;4.256;2022-09-09T04:13:25;2.38;;;0.95;;
48516;SDS011;34310;51.904;4.256;2022-09-09T04:15:57;2.10;;;0.77;;
48516;SDS011;34310;51.904;4.256;2022-09-09T04:18:25;2.63;;;0.60;;
48516;SDS011;34310;51.904;4.256;2022-09-09T04:20:54;1.55;;;0.80;;
48516;SDS011;34310;51.904;4.256;2022-09-09T04:23:26;1.00;;;0.63;;
48516;SDS011;34310;51.904;4.256;2022-09-09T04:25:57;1.20;;;0.50;;
48516;SDS011;34310;51.904;4.256;2022-09-09T04:28:27;0.90;;;0.60;;
48516;SDS011;34310;51.904;4.256;2022-09-09T04:30:56;1.65;;;0.60;;
48516;SDS011;34310;51.904;4.256;2022-09-09T04:33:29;2.27;;;0.60;;
48516;SDS011;34310;51.904;4.256;2022-09-09T04:36:02;1.05;;;0.60;;
48516;SDS011;34310;51.904;4.256;2022-09-09T04:38:29;1.02;;;0.60;;
48516;SDS011;34310;51.904;4.256;2022-09-09T04:40:57;1.27;;;0.70;;
48516;SDS011;34310;51.904;4.256;2022-09-09T04:43:24;1.38;;;0.60;;
48516;SDS011;34310;51.904;4.256;2022-09-09T04:45:52;1.52;;;0.73;;
48516;SDS011;34310;51.904;4.256;2022-09-09T04:48:19;1.58;;;0.60;;
48516;SDS011;34310;51.904;4.256;2022-09-09T04:51:21;1.30;;;0.60;;
48516;SDS011;34310;51.904;4.256;2022-09-09T04:53:41;1.73;;;0.60;;
48516;SDS011;34310;51.904;4.256;2022-09-09T04:56:10;1.88;;;0.63;;
48516;SDS011;34310;51.904;4.256;2022-09-09T04:58:38;2.58;;;0.90;;
48516;SDS011;34310;51.904;4.256;2022-09-09T05:01:13;1.80;;;0.70;;
48516;SDS011;34310;51.904;4.256;2022-09-09T05:03:46;4.03;;;0.80;;
48516;SDS011;34310;51.904;4.256;2022-09-09T05:06:14;1.58;;;0.70;;
48516;SDS011;34310;51.904;4.256;2022-09-09T05:08:43;1.40;;;0.75;;
48516;SDS011;34310;51.904;4.256;2022-09-09T05:11:15;2.58;;;1.23;;
48516;SDS011;34310;51.904;4.256;2022-09-09T05:13:48;3.08;;;1.02;;
48516;SDS011;34310;51.904;4.256;2022-09-09T05:16:16;1.50;;;1.00;;
48516;SDS011;34310;51.904;4.256;2022-09-09T05:18:45;2.85;;;1.15;;
48516;SDS011;34310;51.904;4.256;2022-09-09T05:21:13;3.70;;;1.10;;
48516;SDS011;34310;51.904;4.256;2022-09-09T05:23:41;2.13;;;1.20;;
48516;SDS011;34310;51.904;4.256;2022-09-09T05:26:14;2.72;;;1.05;;
48516;SDS011;34310;51.904;4.256;2022-09-09T05:28:43;1.35;;;1.10;;
48516;SDS011;34310;51.904;4.256;2022-09-09T05:31:11;2.88;;;1.20;;
48516;SDS011;34310;51.904;4.256;2022-09-09T05:33:40;2.42;;;1.10;;
48516;SDS011;34310;51.904;4.256;2022-09-09T05:36:16;1.75;;;1.38;;
48516;SDS011;34310;51.904;4.256;2022-09-09T05:38:45;1.50;;;1.23;;
48516;SDS011;34310;51.904;4.256;2022-09-09T05:41:13;2.15;;;1.20;;
48516;SDS011;34310;51.904;4.256;2022-09-09T05:43:42;1.88;;;1.10;;
48516;SDS011;34310;51.904;4.256;2022-09-09T05:46:11;1.75;;;1.00;;
48516;SDS011;34310;51.904;4.256;2022-09-09T05:48:41;2.47;;;1.15;;
48516;SDS011;34310;51.904;4.256;2022-09-09T05:51:10;1.95;;;1.05;;
48516;SDS011;34310;51.904;4.256;2022-09-09T05:53:38;2.75;;;1.30;;
48516;SDS011;34310;51.904;4.256;2022-09-09T05:56:10;3.08;;;1.45;;
48516;SDS011;34310;51.904;4.256;2022-09-09T05:58:40;4.22;;;1.55;;
48516;SDS011;34310;51.904;4.256;2022-09-09T06:01:12;2.58;;;1.33;;
48516;SDS011;34310;51.904;4.256;2022-09-09T06:03:42;1.73;;;0.98;;
48516;SDS011;34310;51.904;4.256;2022-09-09T06:06:11;1.50;;;0.98;;
48516;SDS011;34310;51.904;4.256;2022-09-09T06:08:40;2.08;;;1.08;;
48516;SDS011;34310;51.904;4.256;2022-09-09T06:11:13;3.58;;;1.10;;
48516;SDS011;34310;51.904;4.256;2022-09-09T06:13:42;2.47;;;1.30;;
48516;SDS011;34310;51.904;4.256;2022-09-09T06:16:11;1.80;;;1.17;;
48516;SDS011;34310;51.904;4.256;2022-09-09T06:18:40;5.10;;;1.38;;
48516;SDS011;34310;51.904;4.256;2022-09-09T06:21:09;2.60;;;1.15;;
48516;SDS011;34310;51.904;4.256;2022-09-09T06:23:42;1.83;;;0.90;;
48516;SDS011;34310;51.904;4.256;2022-09-09T06:26:14;4.50;;;1.30;;
48516;SDS011;34310;51.904;4.256;2022-09-09T06:28:44;2.10;;;0.93;;
48516;SDS011;34310;51.904;4.256;2022-09-09T06:31:14;4.32;;;1.10;;
48516;SDS011;34310;51.904;4.256;2022-09-09T06:33:44;4.53;;;1.50;;
48516;SDS011;34310;51.904;4.256;2022-09-09T06:36:15;5.53;;;1.90;;
48516;SDS011;34310;51.904;4.256;2022-09-09T06:38:47;4.70;;;1.80;;
48516;SDS011;34310;51.904;4.256;2022-09-09T06:41:15;6.22;;;1.38;;
48516;SDS011;34310;51.904;4.256;2022-09-09T06:43:45;6.53;;;1.50;;
48516;SDS011;34310;51.904;4.256;2022-09-09T06:46:13;5.07;;;1.80;;
48516;SDS011;34310;51.904;4.256;2022-09-09T06:48:42;7.22;;;1.85;;
48516;SDS011;34310;51.904;4.256;2022-09-09T06:51:12;10.65;;;2.00;;
48516;SDS011;34310;51.904;4.256;2022-09-09T06:53:41;6.07;;;1.70;;
48516;SDS011;34310;51.904;4.256;2022-09-09T06:58:45;14.68;;;2.50;;
48516;SDS011;34310;51.904;4.256;2022-09-09T07:01:13;13.25;;;2.63;;
48516;SDS011;34310;51.904;4.256;2022-09-09T07:03:47;13.05;;;2.85;;
48516;SDS011;34310;51.904;4.256;2022-09-09T07:08:50;5.78;;;1.85;;
48516;SDS011;34310;51.904;4.256;2022-09-09T07:11:31;10.65;;;2.72;;
48516;SDS011;34310;51.904;4.256;2022-09-09T07:14:00;8.65;;;2.30;;
48516;SDS011;34310;51.904;4.256;2022-09-09T07:16:28;8.55;;;2.53;;
48516;SDS011;34310;51.904;4.256;2022-09-09T07:18:57;11.18;;;2.10;;
48516;SDS011;34310;51.904;4.256;2022-09-09T07:21:27;14.48;;;2.75;;
48516;SDS011;34310;51.904;4.256;2022-09-09T07:23:55;7.07;;;1.88;;
48516;SDS011;34310;51.904;4.256;2022-09-09T07:26:24;13.52;;;2.22;;
48516;SDS011;34310;51.904;4.256;2022-09-09T07:28:54;9.48;;;2.25;;
48516;SDS011;34310;51.904;4.256;2022-09-09T07:31:25;7.07;;;1.83;;
48516;SDS011;34310;51.904;4.256;2022-09-09T07:33:56;7.90;;;1.90;;
48516;SDS011;34310;51.904;4.256;2022-09-09T07:36:30;18.60;;;2.95;;
48516;SDS011;34310;51.904;4.256;2022-09-09T07:39:06;13.45;;;2.33;;
48516;SDS011;34310;51.904;4.256;2022-09-09T07:41:40;12.00;;;1.95;;
48516;SDS011;34310;51.904;4.256;2022-09-09T07:44:11;9.27;;;1.95;;
48516;SDS011;34310;51.904;4.256;2022-09-09T07:46:49;8.32;;;2.58;;
48516;SDS011;34310;51.904;4.256;2022-09-09T07:49:17;8.07;;;2.10;;
48516;SDS011;34310;51.904;4.256;2022-09-09T07:51:52;10.80;;;2.55;;
48516;SDS011;34310;51.904;4.256;2022-09-09T07:54:20;20.70;;;2.95;;
48516;SDS011;34310;51.904;4.256;2022-09-09T07:56:50;23.88;;;3.10;;
48516;SDS011;34310;51.904;4.256;2022-09-09T07:59:18;15.60;;;2.08;;
48516;SDS011;34310;51.904;4.256;2022-09-09T08:01:46;14.73;;;1.92;;
48516;SDS011;34310;51.904;4.256;2022-09-09T08:04:20;9.48;;;2.58;;
48516;SDS011;34310;51.904;4.256;2022-09-09T08:06:58;11.15;;;2.05;;
48516;SDS011;34310;51.904;4.256;2022-09-09T08:09:27;11.82;;;2.20;;
48516;SDS011;34310;51.904;4.256;2022-09-09T08:11:55;6.00;;;1.80;;
48516;SDS011;34310;51.904;4.256;2022-09-09T08:14:23;7.28;;;1.65;;
48516;SDS011;34310;51.904;4.256;2022-09-09T08:16:51;9.52;;;2.20;;
48516;SDS011;34310;51.904;4.256;2022-09-09T08:19:20;6.85;;;1.77;;
48516;SDS011;34310;51.904;4.256;2022-09-09T08:21:48;6.10;;;1.63;;
48516;SDS011;34310;51.904;4.256;2022-09-09T08:24:15;8.38;;;1.77;;
48516;SDS011;34310;51.904;4.256;2022-09-09T08:26:46;9.50;;;2.17;;
48516;SDS011;34310;51.904;4.256;2022-09-09T08:29:17;5.75;;;1.75;;
48516;SDS011;34310;51.904;4.256;2022-09-09T08:31:54;8.80;;;2.00;;
48516;SDS011;34310;51.904;4.256;2022-09-09T08:34:24;12.90;;;2.10;;
48516;SDS011;34310;51.904;4.256;2022-09-09T08:36:53;8.23;;;1.80;;
48516;SDS011;34310;51.904;4.256;2022-09-09T08:39:21;8.30;;;2.45;;
48516;SDS011;34310;51.904;4.256;2022-09-09T08:41:56;9.15;;;1.73;;
48516;SDS011;34310;51.904;4.256;2022-09-09T08:50:16;9.15;;;2.03;;
48516;SDS011;34310;51.904;4.256;2022-09-09T08:53:05;6.32;;;1.73;;
48516;SDS011;34310;51.904;4.256;2022-09-09T08:58:18;6.57;;;1.83;;
48516;SDS011;34310;51.904;4.256;2022-09-09T09:00:54;7.07;;;1.83;;
48516;SDS011;34310;51.904;4.256;2022-09-09T09:06:35;12.25;;;2.10;;
48516;SDS011;34310;51.904;4.256;2022-09-09T09:09:22;11.70;;;2.42;;
48516;SDS011;34310;51.904;4.256;2022-09-09T09:12:16;11.45;;;2.15;;
48516;SDS011;34310;51.904;4.256;2022-09-09T09:14:46;5.93;;;1.70;;
48516;SDS011;34310;51.904;4.256;2022-09-09T09:17:16;9.25;;;1.73;;
48516;SDS011;34310;51.904;4.256;2022-09-09T09:19:45;12.80;;;1.88;;
48516;SDS011;34310;51.904;4.256;2022-09-09T09:22:20;9.73;;;1.90;;
48516;SDS011;34310;51.904;4.256;2022-09-09T09:24:55;18.02;;;2.80;;
48516;SDS011;34310;51.904;4.256;2022-09-09T09:30:17;17.67;;;2.10;;
48516;SDS011;34310;51.904;4.256;2022-09-09T09:33:02;11.95;;;2.20;;
48516;SDS011;34310;51.904;4.256;2022-09-09T09:35:50;32.53;;;2.55;;
48516;SDS011;34310;51.904;4.256;2022-09-09T09:38:18;10.85;;;2.30;;
48516;SDS011;34310;51.904;4.256;2022-09-09T09:41:08;9.95;;;1.70;;
48516;SDS011;34310;51.904;4.256;2022-09-09T09:43:36;13.70;;;1.90;;
48516;SDS011;34310;51.904;4.256;2022-09-09T09:46:18;9.70;;;2.05;;
48516;SDS011;34310;51.904;4.256;2022-09-09T09:49:03;9.63;;;1.52;;
48516;SDS011;34310;51.904;4.256;2022-09-09T09:54:25;25.77;;;2.70;;
48516;SDS011;34310;51.904;4.256;2022-09-09T09:56:55;12.30;;;1.60;;
48516;SDS011;34310;51.904;4.256;2022-09-09T09:59:33;10.13;;;1.50;;
48516;SDS011;34310;51.904;4.256;2022-09-09T10:02:19;13.30;;;1.90;;
48516;SDS011;34310;51.904;4.256;2022-09-09T10:05:08;9.18;;;1.70;;
48516;SDS011;34310;51.904;4.256;2022-09-09T10:14:02;11.10;;;1.83;;
48516;SDS011;34310;51.904;4.256;2022-09-09T10:19:30;20.52;;;2.20;;
48516;SDS011;34310;51.904;4.256;2022-09-09T10:24:40;11.30;;;2.22;;
48516;SDS011;34310;51.904;4.256;2022-09-09T10:30:24;13.82;;;1.90;;
48516;SDS011;34310;51.904;4.256;2022-09-09T10:35:30;24.30;;;2.58;;
48516;SDS011;34310;51.904;4.256;2022-09-09T10:38:05;16.02;;;2.40;;
48516;SDS011;34310;51.904;4.256;2022-09-09T10:46:52;15.80;;;2.55;;
48516;SDS011;34310;51.904;4.256;2022-09-09T10:55:16;16.15;;;2.30;;
48516;SDS011;34310;51.904;4.256;2022-09-09T10:57:51;9.20;;;1.92;;
48516;SDS011;34310;51.904;4.256;2022-09-09T11:00:27;13.25;;;1.55;;
48516;SDS011;34310;51.904;4.256;2022-09-09T11:03:15;11.57;;;1.50;;
48516;SDS011;34310;51.904;4.256;2022-09-09T11:05:55;12.18;;;1.88;;
48516;SDS011;34310;51.904;4.256;2022-09-09T11:08:28;7.32;;;1.65;;
48516;SDS011;34310;51.904;4.256;2022-09-09T11:18:56;4.97;;;1.45;;
48516;SDS011;34310;51.904;4.256;2022-09-09T11:21:40;8.70;;;1.58;;
48516;SDS011;34310;51.904;4.256;2022-09-09T11:26:57;5.75;;;1.33;;
48516;SDS011;34310;51.904;4.256;2022-09-09T11:30:02;6.45;;;1.30;;
48516;SDS011;34310;51.904;4.256;2022-09-09T11:40:44;7.82;;;1.58;;
48516;SDS011;34310;51.904;4.256;2022-09-09T11:43:14;6.03;;;1.20;;
48516;SDS011;34310;51.904;4.256;2022-09-09T11:45:53;8.68;;;1.58;;
48516;SDS011;34310;51.904;4.256;2022-09-09T11:56:30;5.43;;;1.02;;
48516;SDS011;34310;51.904;4.256;2022-09-09T11:59:04;5.10;;;1.27;;
48516;SDS011;34310;51.904;4.256;2022-09-09T12:01:45;10.23;;;1.20;;
48516;SDS011;34310;51.904;4.256;2022-09-09T12:06:58;6.50;;;1.08;;
48516;SDS011;34310;51.904;4.256;2022-09-09T12:09:43;5.68;;;0.90;;
48516;SDS011;34310;51.904;4.256;2022-09-09T12:17:26;17.73;;;1.98;;
48516;SDS011;34310;51.904;4.256;2022-09-09T12:25:39;9.27;;;1.20;;
48516;SDS011;34310;51.904;4.256;2022-09-09T12:28:15;6.72;;;1.30;;
48516;SDS011;34310;51.904;4.256;2022-09-09T12:34:09;9.15;;;1.13;;
48516;SDS011;34310;51.904;4.256;2022-09-09T12:36:37;4.28;;;1.05;;
48516;SDS011;34310;51.904;4.256;2022-09-09T12:39:15;7.13;;;1.20;;
48516;SDS011;34310;51.904;4.256;2022-09-09T12:42:18;5.97;;;1.00;;
48516;SDS011;34310;51.904;4.256;2022-09-09T12:44:54;12.52;;;1.42;;
48516;SDS011;34310;51.904;4.256;2022-09-09T12:47:25;8.57;;;1.40;;
48516;SDS011;34310;51.904;4.256;2022-09-09T12:50:04;3.55;;;1.10;;
48516;SDS011;34310;51.904;4.256;2022-09-09T12:52:41;7.75;;;1.10;;
48516;SDS011;34310;51.904;4.256;2022-09-09T12:55:15;6.43;;;1.15;;
48516;SDS011;34310;51.904;4.256;2022-09-09T12:57:48;3.88;;;1.00;;
48516;SDS011;34310;51.904;4.256;2022-09-09T13:00:20;5.70;;;0.88;;
48516;SDS011;34310;51.904;4.256;2022-09-09T13:05:22;12.18;;;1.48;;
48516;SDS011;34310;51.904;4.256;2022-09-09T13:08:04;7.85;;;1.40;;
48516;SDS011;34310;51.904;4.256;2022-09-09T13:10:37;8.55;;;1.02;;
48516;SDS011;34310;51.904;4.256;2022-09-09T13:13:26;6.30;;;1.08;;
48516;SDS011;34310;51.904;4.256;2022-09-09T13:16:02;6.50;;;1.13;;
48516;SDS011;34310;51.904;4.256;2022-09-09T13:18:34;6.63;;;1.35;;
48516;SDS011;34310;51.904;4.256;2022-09-09T13:21:04;7.70;;;1.30;;
48516;SDS011;34310;51.904;4.256;2022-09-09T13:23:32;7.55;;;1.10;;
48516;SDS011;34310;51.904;4.256;2022-09-09T13:26:06;7.13;;;1.50;;
48516;SDS011;34310;51.904;4.256;2022-09-09T13:28:50;5.78;;;1.05;;
48516;SDS011;34310;51.904;4.256;2022-09-09T13:31:23;7.30;;;1.30;;
48516;SDS011;34310;51.904;4.256;2022-09-09T13:33:55;6.78;;;1.10;;
48516;SDS011;34310;51.904;4.256;2022-09-09T13:36:29;6.47;;;1.17;;
48516;SDS011;34310;51.904;4.256;2022-09-09T13:38:59;4.50;;;0.80;;
48516;SDS011;34310;51.904;4.256;2022-09-09T13:41:33;11.60;;;1.35;;
48516;SDS011;34310;51.904;4.256;2022-09-09T13:44:29;11.40;;;1.27;;
48516;SDS011;34310;51.904;4.256;2022-09-09T13:49:35;11.65;;;1.63;;
48516;SDS011;34310;51.904;4.256;2022-09-09T13:52:13;7.28;;;1.30;;
48516;SDS011;34310;51.904;4.256;2022-09-09T13:54:46;9.35;;;1.17;;
48516;SDS011;34310;51.904;4.256;2022-09-09T13:57:16;10.68;;;1.35;;
48516;SDS011;34310;51.904;4.256;2022-09-09T13:59:44;12.73;;;1.48;;
48516;SDS011;34310;51.904;4.256;2022-09-09T14:02:30;8.13;;;1.00;;
48516;SDS011;34310;51.904;4.256;2022-09-09T14:04:57;4.80;;;1.55;;
48516;SDS011;34310;51.904;4.256;2022-09-09T14:07:25;6.45;;;1.35;;
48516;SDS011;34310;51.904;4.256;2022-09-09T14:09:52;12.82;;;1.13;;
48516;SDS011;34310;51.904;4.256;2022-09-09T14:12:20;9.30;;;1.50;;
48516;SDS011;34310;51.904;4.256;2022-09-09T14:14:47;7.55;;;1.20;;
48516;SDS011;34310;51.904;4.256;2022-09-09T14:17:14;9.93;;;1.50;;
48516;SDS011;34310;51.904;4.256;2022-09-09T14:19:41;7.18;;;1.23;;
48516;SDS011;34310;51.904;4.256;2022-09-09T14:22:09;8.02;;;1.45;;
48516;SDS011;34310;51.904;4.256;2022-09-09T14:24:36;5.80;;;1.45;;
48516;SDS011;34310;51.904;4.256;2022-09-09T14:27:04;6.70;;;1.50;;
48516;SDS011;34310;51.904;4.256;2022-09-09T14:29:32;5.45;;;1.30;;
48516;SDS011;34310;51.904;4.256;2022-09-09T14:32:00;6.45;;;1.52;;
48516;SDS011;34310;51.904;4.256;2022-09-09T14:34:27;21.65;;;1.83;;
48516;SDS011;34310;51.904;4.256;2022-09-09T14:36:54;8.75;;;1.67;;
48516;SDS011;34310;51.904;4.256;2022-09-09T14:39:22;8.35;;;1.27;;
48516;SDS011;34310;51.904;4.256;2022-09-09T14:41:49;8.50;;;1.73;;
48516;SDS011;34310;51.904;4.256;2022-09-09T14:44:16;5.85;;;1.63;;
48516;SDS011;34310;51.904;4.256;2022-09-09T14:46:44;6.57;;;1.30;;
48516;SDS011;34310;51.904;4.256;2022-09-09T14:49:11;8.55;;;1.35;;
48516;SDS011;34310;51.904;4.256;2022-09-09T14:51:39;5.30;;;1.20;;
48516;SDS011;34310;51.904;4.256;2022-09-09T14:54:06;3.63;;;1.00;;
48516;SDS011;34310;51.904;4.256;2022-09-09T14:56:33;5.28;;;1.23;;
48516;SDS011;34310;51.904;4.256;2022-09-09T14:59:01;4.63;;;1.27;;
48516;SDS011;34310;51.904;4.256;2022-09-09T15:01:30;2.97;;;1.10;;
48516;SDS011;34310;51.904;4.256;2022-09-09T15:03:59;6.80;;;1.20;;
48516;SDS011;34310;51.904;4.256;2022-09-09T15:06:28;8.25;;;1.33;;
48516;SDS011;34310;51.904;4.256;2022-09-09T15:08:59;5.43;;;1.38;;
48516;SDS011;34310;51.904;4.256;2022-09-09T15:11:28;9.20;;;1.83;;
48516;SDS011;34310;51.904;4.256;2022-09-09T15:13:58;6.18;;;1.60;;
48516;SDS011;34310;51.904;4.256;2022-09-09T15:16:26;5.47;;;1.50;;
48516;SDS011;34310;51.904;4.256;2022-09-09T15:18:56;11.27;;;1.73;;
48516;SDS011;34310;51.904;4.256;2022-09-09T15:21:29;4.60;;;1.52;;
48516;SDS011;34310;51.904;4.256;2022-09-09T15:23:58;13.48;;;2.15;;
48516;SDS011;34310;51.904;4.256;2022-09-09T15:26:26;8.35;;;2.15;;
48516;SDS011;34310;51.904;4.256;2022-09-09T15:28:54;8.13;;;1.77;;
48516;SDS011;34310;51.904;4.256;2022-09-09T15:31:22;9.48;;;2.03;;
48516;SDS011;34310;51.904;4.256;2022-09-09T15:33:53;8.20;;;2.25;;
48516;SDS011;34310;51.904;4.256;2022-09-09T15:38:58;10.65;;;2.65;;
48516;SDS011;34310;51.904;4.256;2022-09-09T15:41:27;10.15;;;2.10;;
48516;SDS011;34310;51.904;4.256;2022-09-09T15:43:56;11.52;;;2.03;;
48516;SDS011;34310;51.904;4.256;2022-09-09T15:49:14;11.15;;;2.03;;
48516;SDS011;34310;51.904;4.256;2022-09-09T15:51:45;10.48;;;1.88;;
48516;SDS011;34310;51.904;4.256;2022-09-09T15:54:17;13.23;;;2.00;;
48516;SDS011;34310;51.904;4.256;2022-09-09T15:56:47;8.93;;;1.70;;
48516;SDS011;34310;51.904;4.256;2022-09-09T15:59:22;9.38;;;1.63;;
48516;SDS011;34310;51.904;4.256;2022-09-09T16:01:51;8.77;;;1.83;;
48516;SDS011;34310;51.904;4.256;2022-09-09T16:04:19;8.73;;;2.28;;
48516;SDS011;34310;51.904;4.256;2022-09-09T16:06:54;7.07;;;1.55;;
48516;SDS011;34310;51.904;4.256;2022-09-09T16:09:25;16.42;;;2.10;;
48516;SDS011;34310;51.904;4.256;2022-09-09T16:11:55;12.13;;;1.88;;
48516;SDS011;34310;51.904;4.256;2022-09-09T16:14:25;9.60;;;1.50;;
48516;SDS011;34310;51.904;4.256;2022-09-09T16:16:53;9.00;;;1.63;;
48516;SDS011;34310;51.904;4.256;2022-09-09T16:19:21;12.00;;;2.10;;
48516;SDS011;34310;51.904;4.256;2022-09-09T16:21:49;12.02;;;2.13;;
48516;SDS011;34310;51.904;4.256;2022-09-09T16:24:18;10.20;;;1.70;;
48516;SDS011;34310;51.904;4.256;2022-09-09T16:26:52;8.15;;;2.20;;
48516;SDS011;34310;51.904;4.256;2022-09-09T16:29:20;6.07;;;1.85;;
48516;SDS011;34310;51.904;4.256;2022-09-09T16:31:49;6.63;;;1.55;;
48516;SDS011;34310;51.904;4.256;2022-09-09T16:34:17;7.93;;;1.80;;
48516;SDS011;34310;51.904;4.256;2022-09-09T16:36:45;9.65;;;1.75;;
48516;SDS011;34310;51.904;4.256;2022-09-09T16:39:22;7.65;;;1.50;;
48516;SDS011;34310;51.904;4.256;2022-09-09T16:41:49;8.43;;;1.92;;
48516;SDS011;34310;51.904;4.256;2022-09-09T16:44:18;20.15;;;2.92;;
48516;SDS011;34310;51.904;4.256;2022-09-09T16:46:46;10.85;;;2.40;;
48516;SDS011;34310;51.904;4.256;2022-09-09T16:49:24;18.30;;;3.35;;
48516;SDS011;34310;51.904;4.256;2022-09-09T16:51:53;15.52;;;3.15;;
48516;SDS011;34310;51.904;4.256;2022-09-09T16:54:23;15.90;;;3.55;;
48516;SDS011;34310;51.904;4.256;2022-09-09T16:56:53;13.68;;;3.42;;
48516;SDS011;34310;51.904;4.256;2022-09-09T16:59:20;16.38;;;3.38;;
48516;SDS011;34310;51.904;4.256;2022-09-09T17:01:50;14.77;;;3.75;;
48516;SDS011;34310;51.904;4.256;2022-09-09T17:04:22;11.55;;;3.85;;
48516;SDS011;34310;51.904;4.256;2022-09-09T17:06:52;17.85;;;3.83;;
48516;SDS011;34310;51.904;4.256;2022-09-09T17:09:21;17.50;;;3.92;;
48516;SDS011;34310;51.904;4.256;2022-09-09T17:11:49;22.83;;;3.90;;
48516;SDS011;34310;51.904;4.256;2022-09-09T17:14:18;15.80;;;3.80;;
48516;SDS011;34310;51.904;4.256;2022-09-09T17:16:47;13.80;;;3.53;;
48516;SDS011;34310;51.904;4.256;2022-09-09T17:19:14;12.45;;;3.67;;
48516;SDS011;34310;51.904;4.256;2022-09-09T17:21:42;16.90;;;3.97;;
48516;SDS011;34310;51.904;4.256;2022-09-09T17:24:33;20.35;;;3.58;;
48516;SDS011;34310;51.904;4.256;2022-09-09T17:27:00;16.35;;;4.15;;
48516;SDS011;34310;51.904;4.256;2022-09-09T17:29:28;17.05;;;3.47;;
48516;SDS011;34310;51.904;4.256;2022-09-09T17:31:55;18.25;;;3.55;;
48516;SDS011;34310;51.904;4.256;2022-09-09T17:34:23;24.90;;;3.75;;
48516;SDS011;34310;51.904;4.256;2022-09-09T17:36:51;13.18;;;3.38;;
48516;SDS011;34310;51.904;4.256;2022-09-09T17:39:18;14.30;;;3.40;;
48516;SDS011;34310;51.904;4.256;2022-09-09T17:41:45;18.13;;;3.30;;
48516;SDS011;34310;51.904;4.256;2022-09-09T17:44:13;12.52;;;3.10;;